Waterville, ME

3:58 AM EDT on April 27, 2017 (GMT -0400)
Waterville Lafleur

Weather History for KWVL - November, 2012

Change the Weather History Date:

Sunday, November 4, 2012

  Actual Average Record
Temperature  
Mean Temperature 42 °F -  
Max Temperature 48 °F 55 °F 73 °F (1990)
Min Temperature 35 °F 34 °F 17 °F (2002)
Degree Days  
Heating Degree Days 24    
Moisture  
Dew Point 31 °F    
Average Humidity 64    
Maximum Humidity 81    
Minimum Humidity 50    
Precipitation  
Precipitation 0.00 in - - ()
Sea Level Pressure  
Sea Level Pressure 29.77 in    
Wind  
Wind Speed 9 mph (NW)    
Max Wind Speed 20 mph    
Max Gust Speed 24 mph    
Visibility 10 miles    
Events      
Averages and records for this station are not official NWS values.
T = Trace of Precipitation, MM = Missing Value Source: NWS Daily Summary

Daily Weather History Graph

Daily Weather History Graph

Search for Another Location

Airport or City:

Trip Planner

Search our weather history database for the weather conditions in past years. The results will help you decide how hot, cold, wet, or windy it might be!

Date:

Astronomy

Nov. 04, 2012 Rise Set
Actual Time 6:20 AM EST 4:23 PM EST
Civil Twilight 5:50 AM EST 4:53 PM EST
Nautical Twilight 5:15 AM EST 5:28 PM EST
Astronomical Twilight 4:41 AM EST 6:02 PM EST
Moon 8:55 PM EST (11/4) 11:05 AM EST (11/4)
Length of Visible Light 11h 03m
Length of Day
10h 02m
Waning Gibbous, 72% of the Moon is Illuminated
Nov 4
Waning Gibbous
Nov 6
Last Quarter
Nov 13
New
Nov 20
First Quarter
Nov 28
Full

Hourly Weather History & Observations

Time (EST) Temp. Windchill Dew Point Humidity Pressure Visibility Wind Dir Wind Speed Gust Speed Precip Events Conditions
12:15 AM 44.6 °F 40.2 °F 33.8 °F 66% 29.66 in 10.0 mi WNW 8.1 mph - N/A   Overcast
12:35 AM 44.6 °F 40.7 °F 33.8 °F 66% 29.67 in 10.0 mi WNW 6.9 mph - N/A   Overcast
12:55 AM 44.6 °F 40.7 °F 33.8 °F 66% 29.67 in 10.0 mi WNW 6.9 mph - N/A   Overcast
1:15 AM 44.6 °F 40.7 °F 33.8 °F 66% 29.67 in 10.0 mi WNW 6.9 mph - N/A   Overcast
1:35 AM 44.6 °F 40.7 °F 33.8 °F 66% 29.67 in 10.0 mi NW 6.9 mph - N/A   Overcast
1:55 AM 44.6 °F 40.7 °F 33.8 °F 66% 29.68 in 10.0 mi WNW 6.9 mph - N/A   Overcast
1:15 AM 44.6 °F 40.7 °F 35.6 °F 71% 29.68 in 10.0 mi WNW 6.9 mph - N/A   Overcast
1:35 AM 42.8 °F 40.1 °F 35.6 °F 76% 29.68 in 10.0 mi NW 4.6 mph - N/A   Overcast
1:55 AM 42.8 °F 38.6 °F 37.4 °F 81% 29.68 in 10.0 mi WNW 6.9 mph - N/A   Overcast
2:15 AM 42.8 °F 39.3 °F 37.4 °F 81% 29.68 in 10.0 mi WNW 5.8 mph - N/A   Mostly Cloudy
2:35 AM 42.8 °F 38.0 °F 35.6 °F 76% 29.68 in 10.0 mi WNW 8.1 mph - N/A   Mostly Cloudy
2:55 AM 42.8 °F 38.0 °F 35.6 °F 76% 29.68 in 10.0 mi WNW 8.1 mph - N/A   Mostly Cloudy
3:15 AM 42.8 °F 37.0 °F 35.6 °F 76% 29.69 in 10.0 mi NW 10.4 mph - N/A   Scattered Clouds
3:35 AM 42.8 °F 38.0 °F 33.8 °F 70% 29.69 in 10.0 mi WNW 8.1 mph - N/A   Partly Cloudy
3:55 AM 42.8 °F 38.0 °F 33.8 °F 70% 29.70 in 10.0 mi NW 8.1 mph - N/A   Clear
4:15 AM 42.8 °F 38.0 °F 33.8 °F 70% 29.70 in 10.0 mi NW 8.1 mph - N/A   Partly Cloudy
4:55 AM 42.8 °F 38.6 °F 33.8 °F 70% 29.71 in 10.0 mi WNW 6.9 mph - N/A   Scattered Clouds
5:15 AM 41.0 °F 35.8 °F 33.8 °F 76% 29.72 in 10.0 mi NW 8.1 mph - N/A   Clear
5:35 AM 41.0 °F 36.4 °F 33.8 °F 76% 29.72 in 10.0 mi WNW 6.9 mph - N/A   Clear
5:55 AM 41.0 °F 37.1 °F 33.8 °F 76% 29.72 in 10.0 mi NW 5.8 mph - N/A   Clear
6:15 AM 41.0 °F 36.4 °F 33.8 °F 76% 29.73 in 10.0 mi NW 6.9 mph - N/A   Clear
6:35 AM 41.0 °F 35.8 °F 33.8 °F 76% 29.73 in 10.0 mi WNW 8.1 mph - N/A   Clear
6:55 AM 41.0 °F 35.2 °F 32.0 °F 70% 29.74 in 10.0 mi WNW 9.2 mph - N/A   Clear
7:15 AM 41.0 °F 35.2 °F 33.8 °F 76% 29.75 in 10.0 mi WNW 9.2 mph - N/A   Clear
7:35 AM 42.8 °F 40.1 °F 32.0 °F 66% 29.75 in 10.0 mi WNW 4.6 mph - N/A   Clear
7:55 AM 42.8 °F 36.6 °F 32.0 °F 66% 29.76 in 10.0 mi NW 11.5 mph - N/A   Clear
8:15 AM 44.6 °F 39.7 °F 32.0 °F 61% 29.76 in 10.0 mi NW 9.2 mph 18.4 mph N/A   Clear
8:35 AM 44.6 °F 39.2 °F 32.0 °F 61% 29.75 in 10.0 mi WNW 10.4 mph 17.3 mph N/A   Clear
8:55 AM 44.6 °F 38.4 °F 32.0 °F 61% 29.76 in 10.0 mi NW 12.7 mph - N/A   Clear
9:16 AM 44.6 °F 37.2 °F 32.0 °F 61% 29.76 in 10.0 mi NW 17.3 mph 24.2 mph N/A   Partly Cloudy
9:35 AM 44.6 °F 37.2 °F 32.0 °F 61% 29.76 in 10.0 mi WNW 17.3 mph 24.2 mph N/A   Mostly Cloudy
9:55 AM 44.6 °F 37.8 °F 30.2 °F 57% 29.77 in 10.0 mi WNW 15.0 mph - N/A   Scattered Clouds
10:15 AM 46.4 °F 39.0 °F 30.2 °F 53% 29.77 in 10.0 mi NW 19.6 mph 24.2 mph N/A   Clear
10:35 AM 44.6 °F 37.2 °F 30.2 °F 57% 29.77 in 10.0 mi WNW 17.3 mph 21.9 mph N/A   Clear
10:55 AM 44.6 °F 37.8 °F 30.2 °F 57% 29.77 in 10.0 mi NW 15.0 mph 21.9 mph N/A   Clear
11:15 AM 46.4 °F 41.5 °F 30.2 °F 53% 29.77 in 10.0 mi WNW 10.4 mph 18.4 mph N/A   Clear
11:35 AM 46.4 °F 40.7 °F 30.2 °F 53% 29.77 in 10.0 mi WNW 12.7 mph 19.6 mph N/A   Clear
11:55 AM 46.4 °F 40.4 °F 30.2 °F 53% 29.76 in 10.0 mi WNW 13.8 mph 19.6 mph N/A   Clear
12:15 PM 46.4 °F 42.4 °F 30.2 °F 53% 29.75 in 10.0 mi West 8.1 mph 17.3 mph N/A   Clear
12:35 PM 48.2 °F - 30.2 °F 50% 29.75 in 10.0 mi WNW 10.4 mph 16.1 mph N/A   Clear
12:55 PM 48.2 °F - 30.2 °F 50% 29.75 in 10.0 mi WNW 11.5 mph - N/A   Partly Cloudy
1:15 PM 48.2 °F - 30.2 °F 50% 29.75 in 10.0 mi West 10.4 mph 18.4 mph N/A   Mostly Cloudy
1:35 PM 48.2 °F - 30.2 °F 50% 29.76 in 10.0 mi WNW 10.4 mph 16.1 mph N/A   Overcast
1:55 PM 46.4 °F 40.7 °F 30.2 °F 53% 29.76 in 10.0 mi West 12.7 mph 16.1 mph N/A   Overcast
2:15 PM 46.4 °F 41.5 °F 28.4 °F 50% 29.76 in 10.0 mi WNW 10.4 mph - N/A   Overcast
2:35 PM 46.4 °F 40.7 °F 28.4 °F 50% 29.77 in 10.0 mi WNW 12.7 mph - N/A   Overcast
2:55 PM 44.6 °F 38.8 °F 28.4 °F 53% 29.77 in 10.0 mi WNW 11.5 mph - N/A   Overcast
3:16 PM 44.6 °F 39.2 °F 28.4 °F 53% 29.78 in 10.0 mi NW 10.4 mph - N/A   Mostly Cloudy
3:35 PM 44.6 °F 39.7 °F 28.4 °F 53% 29.79 in 10.0 mi WNW 9.2 mph - N/A   Overcast
3:55 PM 44.6 °F 40.2 °F 28.4 °F 53% 29.79 in 10.0 mi WNW 8.1 mph - N/A   Overcast
4:15 PM 42.8 °F 37.0 °F 28.4 °F 57% 29.80 in 10.0 mi North 10.4 mph - N/A   Overcast
4:35 PM 42.8 °F 37.5 °F 28.4 °F 57% 29.81 in 10.0 mi North 9.2 mph - N/A   Overcast
4:55 PM 41.0 °F 33.9 °F 28.4 °F 61% 29.82 in 10.0 mi NNW 12.7 mph 19.6 mph N/A   Overcast
5:15 PM 41.0 °F 34.3 °F 28.4 °F 61% 29.83 in 10.0 mi NNW 11.5 mph - N/A   Overcast
5:35 PM 41.0 °F 35.8 °F 28.4 °F 61% 29.83 in 10.0 mi NNW 8.1 mph - N/A   Overcast
5:55 PM 41.0 °F 34.7 °F 28.4 °F 61% 29.84 in 10.0 mi NNW 10.4 mph - N/A   Overcast
6:35 PM 39.2 °F 32.5 °F 28.4 °F 65% 29.85 in 10.0 mi NNW 10.4 mph - N/A   Overcast
6:55 PM 39.2 °F 33.6 °F 28.4 °F 65% 29.85 in 10.0 mi North 8.1 mph - N/A   Overcast
7:15 PM 39.2 °F 33.0 °F 28.4 °F 65% 29.86 in 10.0 mi NNW 9.2 mph 17.3 mph N/A   Overcast
7:35 PM 39.2 °F 33.0 °F 28.4 °F 65% 29.86 in 10.0 mi NNW 9.2 mph - N/A   Overcast
7:55 PM 39.2 °F 32.5 °F 28.4 °F 65% 29.87 in 10.0 mi NNW 10.4 mph - N/A   Overcast
8:15 PM 37.4 °F 29.8 °F 28.4 °F 70% 29.87 in 10.0 mi North 11.5 mph - N/A   Overcast
8:35 PM 37.4 °F 29.3 °F 26.6 °F 65% 29.87 in 10.0 mi North 12.7 mph 18.4 mph N/A   Overcast
8:55 PM 37.4 °F 30.8 °F 26.6 °F 65% 29.88 in 10.0 mi North 9.2 mph 21.9 mph N/A   Overcast
9:15 PM 37.4 °F 29.8 °F 26.6 °F 65% 29.88 in 10.0 mi NNW 11.5 mph 18.4 mph N/A   Overcast
9:35 PM 37.4 °F 29.8 °F 24.8 °F 60% 29.88 in 10.0 mi NNW 11.5 mph - N/A   Overcast
9:55 PM 35.6 °F 26.6 °F 24.8 °F 65% 29.88 in 10.0 mi North 13.8 mph 18.4 mph N/A   Overcast
10:15 PM 35.6 °F 27.1 °F 24.8 °F 65% 29.89 in 10.0 mi North 12.7 mph 19.6 mph N/A   Overcast
10:35 PM 35.6 °F 28.6 °F 24.8 °F 65% 29.89 in 10.0 mi NNW 9.2 mph - N/A   Overcast
10:55 PM 35.6 °F 26.6 °F 24.8 °F 65% 29.89 in 10.0 mi NNW 13.8 mph - N/A   Overcast